Time;durP1;ratioP1;P1;durP2;ratioP2;P2;SDS_P1;SDS_P2;PMS_P1;PMS_P2;Temp;Humidity;BMP_temperature;BMP_pressure;BME280_temperature;BME280_humidity;BME280_pressure;Samples;Min_cycle;Max_cycle;Signal;HPM_P1;HPM_P2
2021/12/20 00:00:22;;;;;;;8.52;3.40;;;6.60;99.90;;;;;;5044095;28;20106;-61
2021/12/20 00:02:54;;;;;;;7.15;3.45;;;6.60;99.90;;;;;;5044211;28;20048;-61
2021/12/20 00:05:21;;;;;;;6.85;3.17;;;6.60;99.90;;;;;;5043986;28;20067;-61
2021/12/20 00:07:48;;;;;;;12.80;3.67;;;6.60;99.90;;;;;;5044745;28;20044;-60
2021/12/20 00:10:15;;;;;;;7.78;3.50;;;6.60;99.90;;;;;;5044323;28;20045;-61
2021/12/20 00:12:42;;;;;;;7.72;3.65;;;6.60;99.90;;;;;;5024603;28;20077;-61
2021/12/20 00:15:09;;;;;;;7.45;3.17;;;6.60;99.90;;;;;;5048943;28;20095;-61
2021/12/20 00:17:36;;;;;;;7.32;3.33;;;6.50;99.90;;;;;;5049687;28;20099;-60
2021/12/20 00:20:04;;;;;;;4.60;3.30;;;6.50;99.90;;;;;;5051487;28;20041;-60
2021/12/20 00:22:31;;;;;;;5.75;2.83;;;6.50;99.90;;;;;;5051143;28;20045;-60
2021/12/20 00:24:58;;;;;;;6.22;3.03;;;6.50;99.90;;;;;;5050582;28;20072;-60
2021/12/20 00:27:24;;;;;;;8.18;4.22;;;6.60;99.90;;;;;;5050747;28;20053;-60
2021/12/20 00:29:51;;;;;;;5.38;2.95;;;6.70;99.90;;;;;;5048937;28;20041;-60
2021/12/20 00:32:18;;;;;;;5.55;2.55;;;6.60;99.90;;;;;;5048818;28;20114;-60
2021/12/20 00:34:45;;;;;;;5.20;2.45;;;6.60;99.90;;;;;;5049612;28;20065;-60
2021/12/20 00:42:43;;;;;;;6.22;2.30;;;6.50;99.90;;;;;;5045314;28;20037;-59
2021/12/20 00:45:10;;;;;;;3.50;2.20;;;6.50;99.90;;;;;;5049291;28;20056;-60
2021/12/20 00:47:37;;;;;;;4.20;2.33;;;6.60;99.90;;;;;;5049424;28;20267;-60
2021/12/20 00:50:05;;;;;;;4.55;2.28;;;6.50;99.90;;;;;;5048460;28;20487;-61
2021/12/20 00:52:32;;;;;;;9.27;2.90;;;6.50;99.90;;;;;;5048843;28;20718;-60
2021/12/20 00:54:58;;;;;;;6.00;2.50;;;6.50;99.90;;;;;;5048960;28;20585;-59
2021/12/20 00:57:25;;;;;;;7.13;2.95;;;6.50;99.90;;;;;;5049171;28;20530;-59
2021/12/20 00:59:52;;;;;;;5.68;2.33;;;6.50;99.90;;;;;;5044062;28;20072;-60
2021/12/20 01:02:19;;;;;;;6.07;2.70;;;6.50;99.90;;;;;;5041093;28;20045;-60
2021/12/20 01:04:45;;;;;;;5.03;2.50;;;6.50;99.90;;;;;;5050260;28;20096;-60
2021/12/20 01:07:12;;;;;;;6.80;2.63;;;6.50;99.90;;;;;;5034736;28;20077;-60
2021/12/20 01:09:39;;;;;;;3.15;2.22;;;6.60;99.90;;;;;;5049547;28;20110;-60
2021/12/20 01:12:08;;;;;;;5.30;2.47;;;6.60;99.90;;;;;;5049215;28;20110;-60
2021/12/20 01:14:37;;;;;;;3.72;2.28;;;6.60;99.90;;;;;;5049380;28;20098;-59
2021/12/20 01:17:06;;;;;;;5.93;2.55;;;6.60;99.90;;;;;;5049810;28;20236;-60
2021/12/20 01:19:33;;;;;;;4.20;2.42;;;6.60;99.90;;;;;;5045335;28;20049;-60
2021/12/20 01:22:00;;;;;;;7.20;2.78;;;6.60;99.90;;;;;;5048341;28;20076;-60
2021/12/20 01:24:27;;;;;;;5.07;2.63;;;6.50;99.90;;;;;;5047085;28;20084;-60
2021/12/20 01:26:54;;;;;;;6.80;2.42;;;6.50;99.90;;;;;;5048528;28;20084;-60
2021/12/20 01:29:21;;;;;;;6.88;2.50;;;6.50;99.90;;;;;;5048284;28;20092;-60
2021/12/20 01:31:48;;;;;;;6.78;2.33;;;6.60;99.90;;;;;;5049268;28;20041;-60
2021/12/20 01:34:15;;;;;;;8.48;3.00;;;6.50;99.90;;;;;;5049617;28;20500;-60
2021/12/20 01:36:42;;;;;;;6.10;2.63;;;6.50;99.90;;;;;;5049853;28;20103;-60
2021/12/20 01:39:09;;;;;;;5.90;2.60;;;6.50;99.90;;;;;;5049904;28;20045;-61
2021/12/20 01:41:40;;;;;;;6.97;2.75;;;6.50;99.90;;;;;;5046731;28;20090;-60
2021/12/20 01:44:08;;;;;;;10.23;2.45;;;6.50;99.90;;;;;;5050139;28;20061;-62
2021/12/20 01:46:35;;;;;;;7.50;2.75;;;6.50;99.90;;;;;;5049236;28;20099;-60
2021/12/20 01:49:04;;;;;;;4.82;2.80;;;6.50;99.90;;;;;;5049419;28;20083;-60
2021/12/20 01:51:49;;;;;;;7.45;2.40;;;6.50;99.90;;;;;;5048455;28;20103;-60
2021/12/20 01:54:16;;;;;;;5.53;2.53;;;6.50;99.90;;;;;;5050102;28;20041;-61
2021/12/20 01:56:45;;;;;;;5.28;2.70;;;6.50;99.90;;;;;;5047131;28;20068;-60
2021/12/20 01:59:12;;;;;;;3.80;2.00;;;6.50;99.90;;;;;;5048935;28;20080;-60
2021/12/20 02:01:38;;;;;;;7.40;2.83;;;6.50;99.90;;;;;;5049371;28;20137;-60
2021/12/20 02:04:08;;;;;;;6.30;3.08;;;6.50;99.90;;;;;;5049964;28;20048;-60
2021/12/20 02:06:38;;;;;;;6.05;1.90;;;6.50;99.90;;;;;;5048541;28;20496;-60
2021/12/20 02:09:11;;;;;;;4.47;1.77;;;6.60;99.90;;;;;;5048464;28;20223;-60
2021/12/20 02:11:39;;;;;;;3.53;1.88;;;6.60;99.90;;;;;;5049355;28;20076;-60
2021/12/20 02:14:07;;;;;;;5.30;2.00;;;6.60;99.90;;;;;;5049793;28;20496;-61
2021/12/20 02:16:34;;;;;;;4.05;2.40;;;6.60;99.90;;;;;;4698089;28;9999890;-60
2021/12/20 02:19:05;;;;;;;4.60;2.45;;;6.60;99.90;;;;;;5046763;28;20122;-60
2021/12/20 02:21:32;;;;;;;3.20;1.90;;;6.60;99.90;;;;;;5049276;28;20044;-60
2021/12/20 02:23:59;;;;;;;4.55;2.10;;;6.60;99.90;;;;;;5049535;28;20088;-60
2021/12/20 02:26:26;;;;;;;10.85;3.45;;;6.60;99.90;;;;;;5049277;28;20578;-60
2021/12/20 02:28:55;;;;;;;2.63;1.65;;;6.60;99.90;;;;;;5048284;28;20528;-60
2021/12/20 02:39:20;;;;;;;3.53;1.30;;;6.60;99.90;;;;;;5048617;28;20541;-60
2021/12/20 02:41:46;;;;;;;4.88;1.35;;;6.60;99.90;;;;;;5049125;28;20098;-60
2021/12/20 02:44:18;;;;;;;8.13;1.88;;;6.60;99.90;;;;;;5049239;28;20080;-61
2021/12/20 02:47:08;;;;;;;2.25;1.30;;;6.60;99.90;;;;;;5048776;28;20061;-60
2021/12/20 02:49:35;;;;;;;6.45;1.85;;;6.60;99.90;;;;;;5039941;28;20041;-60
2021/12/20 02:52:07;;;;;;;10.77;3.75;;;6.60;99.90;;;;;;5048954;28;20049;-62
2021/12/20 02:54:34;;;;;;;4.80;1.67;;;6.60;99.90;;;;;;5049061;28;20080;-60
2021/12/20 02:57:00;;;;;;;5.95;2.00;;;6.60;99.90;;;;;;5048749;28;20045;-60
2021/12/20 02:59:27;;;;;;;3.45;1.92;;;6.60;99.90;;;;;;5048328;28;20073;-60
2021/12/20 03:02:00;;;;;;;8.63;1.50;;;6.70;99.90;;;;;;5048884;28;20130;-60
2021/12/20 03:04:26;;;;;;;4.00;1.80;;;6.70;99.90;;;;;;5044493;28;20496;-63
2021/12/20 03:06:58;;;;;;;2.30;1.20;;;6.60;99.90;;;;;;5048659;28;20492;-60
2021/12/20 03:09:29;;;;;;;2.72;1.80;;;6.60;99.90;;;;;;5047506;28;20072;-60
2021/12/20 03:11:58;;;;;;;4.10;1.33;;;6.60;99.90;;;;;;5048813;28;20068;-59
2021/12/20 03:14:31;;;;;;;4.95;1.75;;;6.60;99.90;;;;;;5048395;28;20041;-60
2021/12/20 03:16:58;;;;;;;6.50;1.30;;;6.60;99.90;;;;;;5048590;28;20183;-60
2021/12/20 03:19:25;;;;;;;4.60;1.90;;;6.60;99.90;;;;;;5047681;28;20099;-60
2021/12/20 03:21:52;;;;;;;6.13;1.60;;;6.50;99.90;;;;;;5048476;28;20048;-60
2021/12/20 03:24:19;;;;;;;7.65;1.73;;;6.50;99.90;;;;;;5048118;28;20511;-60
2021/12/20 03:26:46;;;;;;;2.08;1.15;;;6.50;99.90;;;;;;5045689;28;20488;-60
2021/12/20 03:29:12;;;;;;;5.25;1.55;;;6.50;99.90;;;;;;5046980;28;20168;-60
2021/12/20 03:31:39;;;;;;;8.55;1.70;;;6.50;99.90;;;;;;5044954;28;20657;-61
2021/12/20 03:34:06;;;;;;;2.60;1.40;;;6.50;99.90;;;;;;5047911;28;20088;-61
2021/12/20 03:36:34;;;;;;;3.65;1.35;;;6.50;99.90;;;;;;5048187;28;20076;-63
2021/12/20 03:39:01;;;;;;;6.78;1.70;;;6.50;99.90;;;;;;5047464;28;20463;-60
2021/12/20 03:41:28;;;;;;;5.75;1.80;;;6.60;99.90;;;;;;5048021;28;20060;-60
2021/12/20 03:43:55;;;;;;;2.08;1.13;;;6.50;99.90;;;;;;5047383;28;20053;-60
2021/12/20 03:46:22;;;;;;;1.67;0.98;;;6.50;99.90;;;;;;5047746;28;20512;-60
2021/12/20 03:48:49;;;;;;;3.80;1.35;;;6.50;99.90;;;;;;5046825;28;20114;-60
2021/12/20 03:51:15;;;;;;;4.50;1.10;;;6.50;99.90;;;;;;5047710;28;20108;-60
2021/12/20 03:53:42;;;;;;;3.22;1.23;;;6.40;99.90;;;;;;5046421;28;20080;-60
2021/12/20 03:56:09;;;;;;;2.00;1.00;;;6.40;99.90;;;;;;5045409;28;20118;-61
2021/12/20 03:58:36;;;;;;;5.47;1.40;;;6.40;99.90;;;;;;5047198;28;20052;-60
2021/12/20 04:01:05;;;;;;;3.42;1.35;;;6.50;99.90;;;;;;5047202;28;20076;-59
2021/12/20 04:03:34;;;;;;;3.80;1.40;;;6.40;99.90;;;;;;5029821;28;20092;-60
2021/12/20 04:06:03;;;;;;;6.93;1.67;;;6.50;99.90;;;;;;5045048;28;20088;-60
2021/12/20 04:08:30;;;;;;;4.45;1.30;;;6.50;99.90;;;;;;5047662;28;20110;-60
2021/12/20 04:10:57;;;;;;;10.48;1.77;;;6.50;99.90;;;;;;5047249;28;20122;-60
2021/12/20 04:13:25;;;;;;;3.33;1.45;;;6.50;99.90;;;;;;5027821;28;20087;-59
2021/12/20 04:15:53;;;;;;;4.20;1.52;;;6.50;99.90;;;;;;5041842;28;20088;-60
2021/12/20 04:18:21;;;;;;;4.38;1.88;;;6.50;99.90;;;;;;5047304;28;20064;-59
2021/12/20 04:20:48;;;;;;;3.38;1.55;;;6.50;99.90;;;;;;5047434;28;20045;-60
2021/12/20 04:23:15;;;;;;;5.82;1.55;;;6.50;99.90;;;;;;5047305;28;20136;-60
2021/12/20 04:25:42;;;;;;;4.95;1.67;;;6.50;99.90;;;;;;5047065;28;20142;-59
2021/12/20 04:28:08;;;;;;;5.75;2.13;;;6.40;99.90;;;;;;5047407;28;20072;-60
2021/12/20 04:30:35;;;;;;;6.30;1.77;;;6.40;99.90;;;;;;5045840;28;20290;-60
2021/12/20 04:33:02;;;;;;;4.25;1.95;;;6.30;99.90;;;;;;5045868;28;20084;-59
2021/12/20 04:35:29;;;;;;;8.55;2.25;;;6.30;99.90;;;;;;5046069;28;20087;-60
2021/12/20 04:37:58;;;;;;;7.72;2.00;;;6.30;99.90;;;;;;5047058;28;20103;-59
2021/12/20 04:40:25;;;;;;;3.28;1.85;;;6.40;99.90;;;;;;5047148;28;20084;-59
2021/12/20 04:42:53;;;;;;;10.38;2.17;;;6.40;99.90;;;;;;5047500;28;20061;-59
2021/12/20 04:45:21;;;;;;;6.03;2.22;;;6.40;99.90;;;;;;5045697;28;20092;-59
2021/12/20 04:47:48;;;;;;;5.40;2.30;;;6.40;99.90;;;;;;5043485;28;20450;-59
2021/12/20 04:50:15;;;;;;;7.78;2.88;;;6.40;99.90;;;;;;5047139;28;20053;-60
2021/12/20 04:52:42;;;;;;;10.60;2.50;;;6.40;99.90;;;;;;5046809;28;20045;-60
2021/12/20 04:55:10;;;;;;;9.55;2.85;;;6.40;99.90;;;;;;5047421;28;20044;-60
2021/12/20 04:57:36;;;;;;;8.02;2.70;;;6.40;99.90;;;;;;5046660;28;20052;-60
2021/12/20 05:00:12;;;;;;;8.68;2.60;;;6.40;99.90;;;;;;5049451;28;20077;-60
2021/12/20 05:02:39;;;;;;;8.32;2.67;;;6.40;99.90;;;;;;5049130;28;20045;-60
2021/12/20 05:05:06;;;;;;;7.75;3.30;;;6.50;99.90;;;;;;5050553;28;20068;-59
2021/12/20 05:07:33;;;;;;;3.58;2.42;;;6.40;99.90;;;;;;5050693;28;20118;-59
2021/12/20 05:10:02;;;;;;;5.18;2.28;;;6.50;99.90;;;;;;5050337;28;20080;-59
2021/12/20 05:12:29;;;;;;;8.18;2.65;;;6.50;99.90;;;;;;5050520;28;20052;-60
2021/12/20 05:14:56;;;;;;;7.57;2.72;;;6.50;99.90;;;;;;5050612;28;20080;-60
2021/12/20 05:17:22;;;;;;;7.38;2.40;;;6.60;99.90;;;;;;5050030;28;20049;-60
2021/12/20 05:19:49;;;;;;;6.72;2.20;;;6.40;99.90;;;;;;5050205;28;20504;-60
2021/12/20 05:22:16;;;;;;;3.95;1.88;;;6.40;99.90;;;;;;5050275;28;20081;-59
2021/12/20 05:24:43;;;;;;;3.60;2.05;;;6.40;99.90;;;;;;5050379;28;20057;-59
2021/12/20 05:27:10;;;;;;;3.58;2.97;;;6.40;99.90;;;;;;5050040;28;20040;-59
2021/12/20 05:29:36;;;;;;;4.32;2.08;;;6.40;99.90;;;;;;5050378;28;20123;-59
2021/12/20 05:32:05;;;;;;;2.83;1.95;;;6.40;99.90;;;;;;5049918;28;20500;-60
2021/12/20 05:34:33;;;;;;;3.45;1.90;;;6.40;99.90;;;;;;5048927;28;20095;-60
2021/12/20 05:37:00;;;;;;;3.13;2.00;;;6.40;99.90;;;;;;5032513;28;20049;-59
2021/12/20 05:39:27;;;;;;;5.47;2.33;;;6.40;99.90;;;;;;5049915;28;20080;-60
2021/12/20 05:41:54;;;;;;;4.40;1.80;;;6.40;99.90;;;;;;5050324;28;20880;-59
2021/12/20 05:44:21;;;;;;;3.08;2.15;;;6.40;99.90;;;;;;5049968;28;20088;-59
2021/12/20 05:46:48;;;;;;;7.78;4.38;;;6.40;99.90;;;;;;5049921;28;20053;-60
2021/12/20 05:49:14;;;;;;;4.15;2.33;;;6.30;99.90;;;;;;5049833;28;20076;-59
2021/12/20 05:51:41;;;;;;;4.00;2.50;;;6.30;99.90;;;;;;5050253;28;20073;-59
2021/12/20 05:54:08;;;;;;;5.65;2.45;;;6.40;99.90;;;;;;5049599;28;20088;-60
2021/12/20 05:56:35;;;;;;;7.88;2.28;;;6.50;99.90;;;;;;5049830;28;20429;-60
2021/12/20 05:59:01;;;;;;;7.05;2.50;;;6.40;99.90;;;;;;5048814;28;20175;-59
2021/12/20 06:01:29;;;;;;;6.63;2.22;;;6.40;99.90;;;;;;5049678;28;20511;-59
2021/12/20 06:03:57;;;;;;;4.72;2.35;;;6.40;99.90;;;;;;5049097;28;20045;-60
2021/12/20 06:06:26;;;;;;;13.48;2.13;;;6.40;99.90;;;;;;5049753;28;20045;-60
2021/12/20 06:08:53;;;;;;;5.50;2.45;;;6.40;99.90;;;;;;5049134;28;20503;-60
2021/12/20 06:11:20;;;;;;;3.50;1.70;;;6.40;99.90;;;;;;5048613;28;20484;-60
2021/12/20 06:13:47;;;;;;;3.28;2.00;;;6.40;99.90;;;;;;5047947;28;20076;-59
2021/12/20 06:16:14;;;;;;;4.47;1.88;;;6.50;99.90;;;;;;5049403;28;20045;-59
2021/12/20 06:18:41;;;;;;;8.20;2.42;;;6.40;99.90;;;;;;5048342;28;20045;-60
2021/12/20 06:21:08;;;;;;;5.43;1.50;;;6.40;99.90;;;;;;5049097;28;20044;-60
2021/12/20 06:23:34;;;;;;;4.85;1.80;;;6.40;99.90;;;;;;5031445;28;20088;-60
2021/12/20 06:26:02;;;;;;;2.28;1.23;;;6.40;99.90;;;;;;5049212;28;20080;-59
2021/12/20 06:28:29;;;;;;;2.65;1.17;;;6.40;99.90;;;;;;5048887;28;20045;-60
2021/12/20 06:30:56;;;;;;;5.05;1.85;;;6.40;99.90;;;;;;5030951;28;20049;-60
2021/12/20 06:33:23;;;;;;;4.28;1.30;;;6.50;99.90;;;;;;5048821;28;20056;-60
2021/12/20 06:35:50;;;;;;;3.15;1.17;;;6.40;99.90;;;;;;5048712;28;20057;-62
2021/12/20 06:38:20;;;;;;;5.75;1.50;;;6.40;99.90;;;;;;5048979;28;20202;-60
2021/12/20 06:40:51;;;;;;;2.60;1.20;;;6.40;99.90;;;;;;5048487;28;20063;-61
2021/12/20 06:43:18;;;;;;;2.45;1.30;;;6.40;99.90;;;;;;5048833;28;20056;-59
2021/12/20 06:45:45;;;;;;;3.88;1.42;;;6.40;99.90;;;;;;5048251;28;20067;-60
2021/12/20 06:48:13;;;;;;;3.42;1.40;;;6.40;99.90;;;;;;5048773;28;20052;-60
2021/12/20 06:50:39;;;;;;;6.28;1.50;;;6.30;99.90;;;;;;5030652;28;20049;-60
2021/12/20 06:53:06;;;;;;;4.28;1.75;;;6.30;99.90;;;;;;5048733;28;20045;-60
2021/12/20 06:55:34;;;;;;;6.47;1.83;;;6.30;99.90;;;;;;5048014;28;20110;-60
2021/12/20 06:58:00;;;;;;;6.10;1.85;;;6.40;99.90;;;;;;5048445;28;20045;-61
2021/12/20 07:00:27;;;;;;;6.63;1.60;;;6.30;99.90;;;;;;5048256;28;20087;-60
2021/12/20 07:02:54;;;;;;;3.42;1.73;;;6.50;99.90;;;;;;5048283;28;20049;-60
2021/12/20 07:05:22;;;;;;;5.20;1.50;;;6.40;99.90;;;;;;5048223;28;20060;-60
2021/12/20 07:07:49;;;;;;;9.30;1.58;;;6.40;99.90;;;;;;5047996;28;20077;-60
2021/12/20 07:10:15;;;;;;;5.60;1.90;;;6.40;99.90;;;;;;5048009;28;20055;-60
2021/12/20 07:12:42;;;;;;;4.88;1.48;;;6.40;99.90;;;;;;5048212;28;20088;-60
2021/12/20 07:15:11;;;;;;;4.85;1.95;;;6.40;99.90;;;;;;5048264;28;20053;-60
2021/12/20 07:17:39;;;;;;;7.65;2.05;;;6.40;99.90;;;;;;5046883;28;20079;-62
2021/12/20 07:20:06;;;;;;;9.55;1.45;;;6.40;99.90;;;;;;5048139;28;20059;-60
2021/12/20 07:22:33;;;;;;;6.90;1.60;;;6.30;99.90;;;;;;5045660;28;20076;-60
2021/12/20 07:25:00;;;;;;;7.28;3.15;;;6.30;99.90;;;;;;5048406;28;20102;-61
2021/12/20 07:27:26;;;;;;;4.60;2.33;;;6.30;99.90;;;;;;5046425;28;20107;-66
2021/12/20 07:29:53;;;;;;;2.95;2.03;;;6.30;99.90;;;;;;5045368;28;20530;-61
2021/12/20 07:32:20;;;;;;;3.92;1.92;;;6.40;99.90;;;;;;5046885;28;20049;-60
2021/12/20 07:34:47;;;;;;;5.13;2.13;;;6.40;99.90;;;;;;5047284;28;20110;-61
2021/12/20 07:37:14;;;;;;;3.03;1.60;;;6.40;99.90;;;;;;5046932;28;20041;-61
2021/12/20 07:39:40;;;;;;;3.38;1.70;;;6.40;99.90;;;;;;5046648;28;20363;-60
2021/12/20 07:42:08;;;;;;;3.40;1.17;;;6.40;99.90;;;;;;5047442;28;20087;-60
2021/12/20 07:44:34;;;;;;;3.35;1.60;;;6.40;99.90;;;;;;5046320;28;20048;-60
2021/12/20 07:47:02;;;;;;;2.97;1.45;;;6.50;99.90;;;;;;5047155;28;20049;-64
2021/12/20 07:49:29;;;;;;;3.00;1.17;;;6.50;99.90;;;;;;5047684;28;20503;-59
2021/12/20 07:51:56;;;;;;;3.58;1.65;;;6.40;99.90;;;;;;5047178;28;20045;-60
2021/12/20 07:54:23;;;;;;;2.25;1.50;;;6.50;99.90;;;;;;5047493;28;20092;-60
2021/12/20 07:56:49;;;;;;;4.78;1.50;;;6.40;99.90;;;;;;5047255;28;20095;-60
2021/12/20 07:59:16;;;;;;;5.68;1.52;;;6.50;99.90;;;;;;5047348;28;20487;-60
2021/12/20 08:01:43;;;;;;;6.88;1.40;;;6.50;99.90;;;;;;5046720;28;20107;-60
2021/12/20 08:04:10;;;;;;;4.68;1.73;;;6.50;99.90;;;;;;5046090;28;20041;-60
2021/12/20 08:06:37;;;;;;;4.05;2.17;;;6.40;99.90;;;;;;5046789;28;20041;-60
2021/12/20 08:09:04;;;;;;;4.47;2.38;;;6.40;99.90;;;;;;5045555;28;20049;-59
2021/12/20 08:11:32;;;;;;;4.93;3.17;;;6.50;99.90;;;;;;5047105;28;20037;-60
2021/12/20 08:13:59;;;;;;;3.83;2.60;;;6.40;99.90;;;;;;5045993;28;20087;-60
2021/12/20 08:16:26;;;;;;;3.50;2.33;;;6.40;99.90;;;;;;5047353;28;20421;-60
2021/12/20 08:18:53;;;;;;;3.38;2.28;;;6.40;99.90;;;;;;5046836;28;20061;-61
2021/12/20 08:21:21;;;;;;;5.53;2.50;;;6.30;99.90;;;;;;5047043;28;20110;-61
2021/12/20 08:23:48;;;;;;;3.30;2.30;;;6.30;99.90;;;;;;5046952;28;20041;-61
2021/12/20 08:26:15;;;;;;;4.18;2.10;;;6.30;99.90;;;;;;5032274;28;20054;-60
2021/12/20 08:28:42;;;;;;;6.88;2.80;;;6.30;99.90;;;;;;5036836;28;20612;-61
2021/12/20 08:31:09;;;;;;;6.43;2.50;;;6.20;99.90;;;;;;5045899;28;20150;-60
2021/12/20 08:33:36;;;;;;;4.78;1.80;;;6.30;99.90;;;;;;5047409;28;20563;-62
2021/12/20 08:36:04;;;;;;;4.15;2.17;;;6.20;99.90;;;;;;5051325;28;20056;-61
2021/12/20 08:38:31;;;;;;;4.90;2.55;;;6.20;99.90;;;;;;5051289;28;20072;-61
2021/12/20 08:40:59;;;;;;;3.88;2.50;;;6.30;99.90;;;;;;5039342;28;20136;-61
2021/12/20 08:43:27;;;;;;;6.05;2.58;;;6.30;99.90;;;;;;5050438;28;20681;-60
2021/12/20 08:45:53;;;;;;;3.35;1.90;;;6.30;99.90;;;;;;5051257;28;20070;-59
2021/12/20 08:48:20;;;;;;;3.35;2.15;;;6.40;99.90;;;;;;5050767;28;20080;-59
2021/12/20 08:50:47;;;;;;;4.10;1.77;;;6.40;99.90;;;;;;5050982;28;20052;-59
2021/12/20 08:53:14;;;;;;;3.65;1.95;;;6.40;99.90;;;;;;5051155;28;20148;-59
2021/12/20 08:55:41;;;;;;;5.72;1.83;;;6.40;99.90;;;;;;5049537;28;20049;-59
2021/12/20 08:58:08;;;;;;;7.10;1.80;;;6.40;99.90;;;;;;5045986;28;20142;-58
2021/12/20 09:00:36;;;;;;;3.72;1.77;;;6.40;99.90;;;;;;5046991;28;20088;-58
2021/12/20 09:03:03;;;;;;;7.47;2.00;;;6.50;99.90;;;;;;5028306;28;20055;-58
2021/12/20 09:05:30;;;;;;;5.13;2.10;;;6.40;99.90;;;;;;5042300;28;20079;-59
2021/12/20 09:08:00;;;;;;;3.58;1.60;;;6.50;99.90;;;;;;5047047;28;20076;-58
2021/12/20 09:10:33;;;;;;;5.22;1.92;;;6.40;99.90;;;;;;5046613;28;20683;-59
2021/12/20 09:13:00;;;;;;;5.32;1.40;;;6.50;99.90;;;;;;5047660;28;20067;-59
2021/12/20 09:15:28;;;;;;;8.18;1.80;;;6.50;99.90;;;;;;5046159;28;20092;-59
2021/12/20 09:17:55;;;;;;;2.55;1.23;;;6.50;99.90;;;;;;5046336;28;20142;-59
2021/12/20 09:20:24;;;;;;;2.63;1.00;;;6.50;99.90;;;;;;5045815;28;20423;-60
2021/12/20 09:22:52;;;;;;;3.05;1.00;;;6.50;99.90;;;;;;5046323;28;20072;-59
2021/12/20 09:25:21;;;;;;;4.68;1.38;;;6.50;99.90;;;;;;5045266;28;20451;-59
2021/12/20 09:27:48;;;;;;;1.73;1.08;;;6.50;99.90;;;;;;5046441;28;20045;-60
2021/12/20 09:30:15;;;;;;;6.80;2.92;;;6.60;99.90;;;;;;5046073;28;20555;-58
2021/12/20 09:32:42;;;;;;;4.15;0.88;;;6.60;99.90;;;;;;5046612;28;20474;-57
2021/12/20 09:35:09;;;;;;;4.85;1.00;;;6.60;99.90;;;;;;5046361;28;20071;-59
2021/12/20 09:37:38;;;;;;;4.90;1.40;;;6.60;99.80;;;;;;5047260;28;20049;-58
2021/12/20 09:40:13;;;;;;;8.20;1.30;;;6.60;99.90;;;;;;5046408;28;20118;-57
2021/12/20 09:42:51;;;;;;;4.93;1.13;;;6.60;99.90;;;;;;5043775;28;20060;-58
2021/12/20 09:45:19;;;;;;;5.72;1.73;;;6.60;99.90;;;;;;5042940;28;20058;-57
2021/12/20 09:47:47;;;;;;;7.18;1.52;;;6.50;99.90;;;;;;5044865;28;20041;-58
2021/12/20 09:50:15;;;;;;;2.53;1.15;;;6.60;99.90;;;;;;5044851;28;20090;-58
2021/12/20 09:52:43;;;;;;;13.60;1.45;;;6.50;99.90;;;;;;5043202;28;20083;-58
2021/12/20 09:55:10;;;;;;;7.88;1.30;;;6.50;99.90;;;;;;5045151;28;20547;-58
2021/12/20 09:57:40;;;;;;;5.10;1.65;;;6.50;99.90;;;;;;5045019;28;20128;-57
2021/12/20 10:00:08;;;;;;;9.18;1.58;;;6.50;99.90;;;;;;4696667;28;10000661;-58
2021/12/20 10:02:35;;;;;;;12.15;1.73;;;6.60;99.90;;;;;;5044993;28;20073;-58
2021/12/20 10:05:02;;;;;;;10.77;1.48;;;6.60;99.90;;;;;;5046272;28;20063;-59
2021/12/20 10:07:29;;;;;;;10.32;2.90;;;6.60;99.90;;;;;;5043967;28;20106;-58
2021/12/20 10:09:56;;;;;;;8.45;1.60;;;6.60;99.90;;;;;;5045864;28;20095;-59
2021/12/20 10:12:26;;;;;;;5.40;1.88;;;6.60;99.90;;;;;;5046816;28;20073;-58
2021/12/20 10:14:59;;;;;;;7.80;1.95;;;6.70;99.90;;;;;;5046953;28;20215;-58
2021/12/20 10:17:32;;;;;;;13.70;2.13;;;6.70;99.90;;;;;;5046204;28;20081;-58
2021/12/20 10:20:23;;;;;;;6.32;1.38;;;6.70;99.90;;;;;;5046325;28;20470;-57
2021/12/20 10:22:51;;;;;;;7.72;1.40;;;6.70;99.20;;;;;;5046534;28;20088;-59
2021/12/20 10:25:28;;;;;;;4.10;1.48;;;6.80;99.70;;;;;;5046862;28;20091;-59
2021/12/20 10:28:16;;;;;;;13.10;1.75;;;6.80;99.80;;;;;;5045087;28;20041;-57
2021/12/20 10:31:06;;;;;;;10.77;1.75;;;6.90;99.40;;;;;;5046501;28;20099;-57
2021/12/20 10:33:33;;;;;;;8.85;1.85;;;6.90;99.30;;;;;;5041382;28;20060;-59
2021/12/20 10:36:05;;;;;;;19.85;2.40;;;6.90;99.20;;;;;;5046270;28;20044;-58
2021/12/20 10:38:33;;;;;;;4.72;1.30;;;6.90;99.10;;;;;;5044667;28;20076;-60
2021/12/20 10:41:11;;;;;;;6.90;1.60;;;6.90;99.30;;;;;;5044271;28;20081;-60
2021/12/20 10:43:44;;;;;;;7.65;2.30;;;7.00;99.30;;;;;;5045947;28;20385;-59
2021/12/20 10:46:15;;;;;;;7.43;1.75;;;7.00;98.70;;;;;;5045210;28;20106;-59
2021/12/20 10:48:44;;;;;;;12.50;1.98;;;7.10;99.00;;;;;;5045526;28;20446;-58
2021/12/20 10:51:24;;;;;;;10.00;2.00;;;7.10;98.70;;;;;;5045799;28;20084;-58
2021/12/20 10:54:00;;;;;;;12.25;1.77;;;7.10;98.90;;;;;;5044910;28;20136;-57
2021/12/20 10:56:39;;;;;;;14.93;1.95;;;7.10;98.60;;;;;;5045102;28;20049;-58
2021/12/20 10:59:11;;;;;;;8.80;1.85;;;7.20;98.60;;;;;;5044576;28;20041;-58
2021/12/20 11:04:18;;;;;;;11.73;2.45;;;7.20;98.20;;;;;;5047556;28;20067;-57
2021/12/20 11:09:05;;;;;;;8.05;1.88;;;7.20;98.30;;;;;;5049056;28;20504;-59
2021/12/20 11:10:00;;;;;;;16.40;2.30;;;7.30;98.60;;;;;;5045137;28;20516;-58
2021/12/20 11:12:31;;;;;;;13.25;2.33;;;7.40;98.10;;;;;;5046145;28;20045;-58
2021/12/20 11:15:03;;;;;;;20.55;3.75;;;7.40;98.00;;;;;;5048047;28;20087;-57
2021/12/20 11:17:30;;;;;;;10.48;2.22;;;7.40;98.20;;;;;;5029676;28;20540;-57
2021/12/20 11:19:58;;;;;;;19.15;2.10;;;7.40;98.00;;;;;;5047417;28;20506;-57
2021/12/20 11:22:29;;;;;;;13.95;1.83;;;7.30;97.70;;;;;;5047388;28;20076;-59
2021/12/20 11:24:58;;;;;;;11.48;1.83;;;7.40;97.80;;;;;;5047518;28;20077;-59
2021/12/20 11:27:34;;;;;;;18.38;2.72;;;7.40;97.50;;;;;;5047416;28;20053;-58
2021/12/20 11:30:17;;;;;;;13.23;2.35;;;7.40;97.60;;;;;;5044908;28;20130;-60
2021/12/20 11:32:44;;;;;;;19.60;3.08;;;7.40;97.40;;;;;;5023782;28;20134;-58
2021/12/20 11:35:13;;;;;;;19.75;3.97;;;7.40;96.30;;;;;;5043249;28;20037;-57
2021/12/20 11:37:40;;;;;;;24.67;3.67;;;7.40;96.70;;;;;;5043808;28;20618;-59
2021/12/20 11:40:08;;;;;;;17.60;2.33;;;7.50;97.20;;;;;;5043709;28;20044;-59
2021/12/20 11:42:35;;;;;;;15.70;2.65;;;7.50;97.00;;;;;;5043418;28;20052;-58
2021/12/20 11:45:04;;;;;;;15.55;2.95;;;7.70;96.90;;;;;;5043661;28;20048;-59
2021/12/20 11:48:08;;;;;;;20.48;2.70;;;7.60;97.00;;;;;;5043846;28;20057;-60
2021/12/20 11:50:36;;;;;;;17.15;2.70;;;7.60;96.90;;;;;;5041372;28;20056;-59
2021/12/20 11:53:11;;;;;;;21.50;3.50;;;7.60;96.70;;;;;;5038183;28;20089;-58
2021/12/20 11:55:44;;;;;;;17.02;2.45;;;7.60;96.70;;;;;;5042557;28;20041;-58
2021/12/20 11:58:25;;;;;;;24.80;2.90;;;7.70;96.20;;;;;;5043929;28;20213;-58
2021/12/20 12:00:53;;;;;;;24.40;3.35;;;7.70;95.40;;;;;;5043187;28;20496;-58
2021/12/20 12:03:24;;;;;;;12.73;2.58;;;7.70;96.60;;;;;;5043952;28;20048;-59
2021/12/20 12:05:53;;;;;;;14.48;3.17;;;7.70;96.50;;;;;;5043857;28;20048;-59
2021/12/20 12:08:57;;;;;;;14.75;3.00;;;7.80;96.30;;;;;;5043492;28;20049;-59
2021/12/20 12:11:44;;;;;;;15.00;2.60;;;7.80;94.30;;;;;;5033627;28;20626;-58
2021/12/20 12:14:20;;;;;;;17.00;3.05;;;7.80;96.00;;;;;;5043073;28;20556;-58
2021/12/20 12:17:01;;;;;;;15.27;2.97;;;7.80;96.10;;;;;;5043806;28;20149;-58
2021/12/20 12:19:43;;;;;;;16.63;3.65;;;7.80;95.50;;;;;;5043018;28;20760;-56
2021/12/20 12:22:25;;;;;;;17.13;3.10;;;7.80;95.30;;;;;;5043085;28;20057;-58
2021/12/20 12:24:57;;;;;;;25.05;2.50;;;7.80;95.40;;;;;;5034129;28;20258;-59
2021/12/20 12:27:29;;;;;;;22.10;4.28;;;7.80;95.70;;;;;;5043494;28;20053;-60
2021/12/20 12:30:12;;;;;;;19.92;4.00;;;7.90;95.90;;;;;;5043914;28;20134;-58
2021/12/20 12:32:48;;;;;;;20.92;3.47;;;7.90;94.20;;;;;;5044298;28;20063;-58
2021/12/20 12:35:37;;;;;;;18.60;3.22;;;7.90;94.90;;;;;;5024914;28;20057;-59
2021/12/20 12:38:15;;;;;;;21.13;4.93;;;7.80;94.80;;;;;;5042861;28;20542;-58
2021/12/20 12:40:45;;;;;;;13.13;3.78;;;7.90;94.80;;;;;;5042683;28;20487;-58
2021/12/20 12:43:15;;;;;;;15.65;3.00;;;7.90;95.70;;;;;;5043605;28;20102;-58
2021/12/20 12:45:50;;;;;;;19.50;3.78;;;7.90;95.30;;;;;;5043931;28;20092;-58
2021/12/20 12:48:41;;;;;;;23.95;3.83;;;7.90;94.30;;;;;;5043372;28;20111;-58
2021/12/20 12:51:20;;;;;;;15.77;4.50;;;7.90;93.70;;;;;;5042546;28;20566;-57
2021/12/20 12:53:52;;;;;;;21.67;3.45;;;7.90;94.90;;;;;;5042789;28;20052;-58
2021/12/20 12:56:25;;;;;;;15.68;2.97;;;8.00;95.10;;;;;;5044340;28;20057;-58
2021/12/20 12:59:20;;;;;;;15.73;2.97;;;8.00;94.80;;;;;;5044117;28;20139;-59
2021/12/20 13:01:56;;;;;;;24.13;4.35;;;8.00;94.40;;;;;;5039684;28;20045;-58
2021/12/20 13:04:44;;;;;;;16.10;2.42;;;8.00;94.70;;;;;;5040398;28;20067;-58
2021/12/20 13:07:32;;;;;;;22.30;3.85;;;8.00;94.40;;;;;;5044707;28;20164;-58
2021/12/20 13:10:03;;;;;;;24.23;3.75;;;8.00;94.40;;;;;;5037804;28;20049;-58
2021/12/20 13:15:24;;;;;;;27.67;4.00;;;8.00;94.90;;;;;;5044410;28;20041;-56
2021/12/20 13:17:56;;;;;;;22.67;3.58;;;8.00;94.70;;;;;;5044742;28;20057;-58
2021/12/20 13:23:18;;;;;;;25.75;4.97;;;8.00;94.60;;;;;;5047843;28;20128;-57
2021/12/20 13:26:01;;;;;;;13.93;2.88;;;8.00;94.60;;;;;;5047149;28;20088;-59
2021/12/20 13:28:36;;;;;;;14.32;2.80;;;8.00;94.10;;;;;;5046844;28;20075;-57